Time;durP1;ratioP1;P1;durP2;ratioP2;P2;SDS_P1;SDS_P2;PMS_P1;PMS_P2;Temp;Humidity;BMP_temperature;BMP_pressure;BME280_temperature;BME280_humidity;BME280_pressure;Samples;Min_cycle;Max_cycle;Signal;HPM_P1;HPM_P2
2021/10/29 00:02:52;;;;;;;27.35;18.70;;;;;;;8.71;100.00;100945.84;10623776;28;20406;-60
2021/10/29 00:07:55;;;;;;;31.35;18.63;;;;;;;8.62;100.00;100947.09;10624461;28;20078;-58
2021/10/29 00:12:57;;;;;;;26.05;16.98;;;;;;;8.78;100.00;100946.41;10623505;28;20050;-59
2021/10/29 00:17:59;;;;;;;28.83;18.77;;;;;;;8.60;100.00;100940.28;10623863;28;20051;-57
2021/10/29 00:23:02;;;;;;;30.25;19.05;;;;;;;8.48;100.00;100942.53;10623592;28;20054;-59
2021/10/29 00:28:05;;;;;;;28.88;19.23;;;;;;;8.58;100.00;100953.38;10626141;27;20399;-57
2021/10/29 00:33:07;;;;;;;24.45;17.70;;;;;;;8.57;100.00;100945.63;10631100;27;20496;-57
2021/10/29 00:38:10;;;;;;;29.23;19.05;;;;;;;8.52;100.00;100951.06;10631087;27;20126;-57
2021/10/29 00:43:13;;;;;;;24.05;18.00;;;;;;;8.64;100.00;100953.13;10630824;27;20050;-60
2021/10/29 00:48:16;;;;;;;27.88;18.70;;;;;;;8.51;100.00;100944.16;10631036;27;20054;-58
2021/10/29 00:53:19;;;;;;;31.45;19.70;;;;;;;8.38;100.00;100946.44;10630510;27;20482;-59
2021/10/29 00:58:21;;;;;;;30.75;18.63;;;;;;;8.49;100.00;100940.75;10630266;27;20490;-59
2021/10/29 01:03:23;;;;;;;30.33;18.85;;;;;;;8.37;100.00;100939.53;10630096;27;20495;-59
2021/10/29 01:08:26;;;;;;;26.33;18.08;;;;;;;8.50;100.00;100940.69;10630190;27;20085;-59
2021/10/29 01:13:28;;;;;;;23.92;17.02;;;;;;;8.42;100.00;100936.72;10630068;27;20054;-57
2021/10/29 01:18:31;;;;;;;29.02;18.23;;;;;;;8.49;100.00;100933.78;10629488;27;20516;-58
2021/10/29 01:23:35;;;;;;;28.42;17.45;;;;;;;8.46;100.00;100923.50;10629527;27;20051;-57
2021/10/29 01:28:37;;;;;;;29.27;17.40;;;;;;;8.37;100.00;100926.47;10629381;27;20051;-58
2021/10/29 01:33:40;;;;;;;25.00;16.42;;;;;;;8.35;100.00;100918.75;10628891;27;20486;-59
2021/10/29 01:38:45;;;;;;;25.50;17.88;;;;;;;8.33;100.00;100912.72;10628231;27;20039;-59
2021/10/29 01:43:48;;;;;;;31.20;19.58;;;;;;;8.34;100.00;100913.59;10628530;27;20055;-59
2021/10/29 01:48:52;;;;;;;31.80;18.65;;;;;;;8.21;100.00;100902.03;10628344;27;20043;-58
2021/10/29 01:53:54;;;;;;;29.05;18.55;;;;;;;8.21;100.00;100889.84;10628693;27;20047;-58
2021/10/29 01:58:56;;;;;;;26.67;17.70;;;;;;;8.35;100.00;100887.44;10627979;27;20376;-59
2021/10/29 02:03:59;;;;;;;28.38;17.30;;;;;;;8.29;100.00;100890.31;10627681;27;20414;-58
2021/10/29 02:09:02;;;;;;;27.23;16.73;;;;;;;8.29;100.00;100879.91;10627345;27;20043;-60
2021/10/29 02:14:04;;;;;;;23.13;16.55;;;;;;;8.31;100.00;100869.41;10627156;27;20043;-58
2021/10/29 02:19:07;;;;;;;23.58;15.93;;;;;;;8.44;100.00;100874.88;10627394;27;20047;-58
2021/10/29 02:24:09;;;;;;;21.40;15.48;;;;;;;8.53;100.00;100869.25;10627024;27;20054;-59
2021/10/29 02:29:11;;;;;;;23.13;16.38;;;;;;;8.49;100.00;100858.13;10608777;27;20399;-57
2021/10/29 02:34:14;;;;;;;26.65;16.35;;;;;;;8.43;100.00;100857.56;10626575;27;20043;-59
2021/10/29 02:39:16;;;;;;;24.05;17.75;;;;;;;8.51;100.00;100852.84;10626046;27;20479;-58
2021/10/29 02:44:19;;;;;;;23.45;15.70;;;;;;;8.43;100.00;100841.91;10625699;27;20486;-59
2021/10/29 02:49:21;;;;;;;24.38;16.35;;;;;;;8.41;100.00;100841.94;10625363;27;20050;-58
2021/10/29 02:54:24;;;;;;;21.23;16.20;;;;;;;8.46;100.00;100842.59;10625648;27;20054;-58
2021/10/29 02:59:32;;;;;;;26.48;16.27;;;;;;;8.41;100.00;100833.28;10625518;27;20491;-57
2021/10/29 03:04:34;;;;;;;25.65;17.48;;;;;;;8.50;100.00;100832.84;10625646;27;20054;-57
2021/10/29 03:09:37;;;;;;;22.48;15.88;;;;;;;8.48;100.00;100826.88;10625128;27;20054;-58
2021/10/29 03:14:39;;;;;;;20.75;15.73;;;;;;;8.37;100.00;100817.78;10625359;27;20047;-56
2021/10/29 03:19:41;;;;;;;23.20;16.83;;;;;;;8.27;100.00;100826.97;10624828;27;20043;-57
2021/10/29 03:24:44;;;;;;;30.08;17.13;;;;;;;8.32;100.00;100824.97;10624612;27;20050;-57
2021/10/29 03:29:46;;;;;;;26.42;16.92;;;;;;;8.38;100.00;100823.81;10624358;27;20429;-59
2021/10/29 03:34:49;;;;;;;22.27;15.57;;;;;;;8.28;100.00;100820.81;10624426;27;20051;-58
2021/10/29 03:40:06;;;;;;;25.50;17.65;;;;;;;8.35;100.00;100818.75;10624979;27;20051;-60
2021/10/29 03:45:11;;;;;;;26.05;17.85;;;;;;;8.17;100.00;100808.28;10624750;28;20062;-59
2021/10/29 03:50:22;;;;;;;22.52;17.23;;;;;;;8.33;100.00;100815.38;10624856;28;20047;-58
2021/10/29 03:55:32;;;;;;;22.48;16.63;;;;;;;8.32;100.00;100822.38;10607823;28;20549;-59
2021/10/29 04:00:35;;;;;;;23.45;16.48;;;;;;;8.34;100.00;100817.91;10623815;27;20070;-58
2021/10/29 04:05:38;;;;;;;22.10;16.20;;;;;;;8.45;100.00;100806.16;10632662;27;20062;-58
2021/10/29 04:10:45;;;;;;;26.58;17.00;;;;;;;8.42;100.00;100806.25;10633084;27;20061;-57
2021/10/29 04:15:47;;;;;;;20.80;15.77;;;;;;;8.44;100.00;100800.09;10632596;27;20074;-59
2021/10/29 04:20:50;;;;;;;22.40;16.25;;;;;;;8.60;100.00;100799.34;10631699;27;20047;-58
2021/10/29 04:25:53;;;;;;;23.70;15.80;;;;;;;8.47;100.00;100802.56;10632214;27;20043;-58
2021/10/29 04:30:56;;;;;;;21.75;15.32;;;;;;;8.55;100.00;100797.78;10631431;27;20055;-54
2021/10/29 04:36:00;;;;;;;20.58;16.40;;;;;;;8.51;100.00;100785.81;10631430;27;20043;-59
2021/10/29 04:41:02;;;;;;;19.23;14.13;;;;;;;8.58;100.00;100782.91;10612666;27;20051;-57
2021/10/29 04:46:05;;;;;;;23.77;15.57;;;;;;;8.55;100.00;100776.06;10631575;27;20116;-57
2021/10/29 04:51:07;;;;;;;18.42;14.05;;;;;;;8.53;100.00;100772.69;10612573;27;20072;-59
2021/10/29 04:56:10;;;;;;;22.67;16.55;;;;;;;8.46;100.00;100769.53;10612353;27;20043;-56
2021/10/29 05:01:12;;;;;;;24.13;15.45;;;;;;;8.53;100.00;100775.31;10630056;27;20046;-59
2021/10/29 05:06:14;;;;;;;23.65;16.67;;;;;;;8.43;100.00;100774.91;10630154;27;20376;-58
2021/10/29 05:11:17;;;;;;;22.63;15.45;;;;;;;8.40;100.00;100768.97;10630156;27;20054;-57
2021/10/29 05:16:19;;;;;;;22.90;16.38;;;;;;;8.38;100.00;100767.25;10629027;27;20058;-59
2021/10/29 05:21:21;;;;;;;26.08;17.05;;;;;;;8.55;100.00;100760.41;10629224;27;20402;-57
2021/10/29 05:26:24;;;;;;;24.55;17.13;;;;;;;8.30;100.00;100761.56;10629765;27;20050;-60
2021/10/29 05:31:26;;;;;;;26.02;17.38;;;;;;;8.26;100.00;100754.81;10629066;27;20424;-58
2021/10/29 05:36:29;;;;;;;21.58;15.43;;;;;;;8.31;100.00;100752.84;10629420;27;20047;-59
2021/10/29 05:41:32;;;;;;;24.15;16.27;;;;;;;8.29;100.00;100748.63;10628572;27;20058;-59
2021/10/29 05:46:38;;;;;;;22.65;14.88;;;;;;;8.37;100.00;100742.13;10628594;27;20051;-58
2021/10/29 05:51:44;;;;;;;21.98;15.18;;;;;;;8.36;100.00;100743.03;10628384;27;20066;-58
2021/10/29 05:56:46;;;;;;;22.83;16.67;;;;;;;8.28;100.00;100728.66;10628369;27;20047;-57
2021/10/29 06:01:49;;;;;;;20.50;15.70;;;;;;;8.34;100.00;100731.00;10627594;27;20047;-57
2021/10/29 06:06:52;;;;;;;24.85;15.50;;;;;;;8.31;100.00;100737.19;10627880;27;20046;-58
2021/10/29 06:11:55;;;;;;;22.27;15.90;;;;;;;8.31;100.00;100742.41;10628107;27;20039;-58
2021/10/29 06:16:58;;;;;;;22.40;15.32;;;;;;;8.30;100.00;100734.66;10627400;27;20043;-56
2021/10/29 06:28:11;;;;;;;26.38;17.10;;;;;;;8.14;100.00;100732.78;10626209;27;20047;-58
2021/10/29 06:32:33;;;;;;;25.27;15.15;;;;;;;8.26;100.00;100731.34;10626759;27;20124;-56
2021/10/29 06:37:36;;;;;;;22.10;14.40;;;;;;;8.27;100.00;100732.19;10608283;27;20058;-55
2021/10/29 06:42:38;;;;;;;21.10;15.75;;;;;;;8.27;100.00;100737.41;10627097;27;20055;-58
2021/10/29 07:41:06;;;;;;;20.15;14.02;;;;;;;9.65;100.00;100727.72;10609110;27;20043;-58
2021/10/29 07:46:09;;;;;;;18.00;12.50;;;;;;;9.91;100.00;100733.28;10624561;28;20053;-58
2021/10/29 07:51:11;;;;;;;15.93;12.80;;;;;;;10.00;100.00;100727.53;10624010;28;20487;-57
2021/10/29 07:56:14;;;;;;;20.27;13.60;;;;;;;10.69;99.13;100722.75;10624527;28;20051;-57
2021/10/29 08:01:16;;;;;;;19.40;12.25;;;;;;;11.02;94.45;100728.69;10623846;28;20051;-57
2021/10/29 08:06:18;;;;;;;18.20;11.02;;;;;;;11.63;93.66;100722.28;10624667;28;20051;-57
2021/10/29 08:11:21;;;;;;;14.43;11.05;;;;;;;11.60;88.40;100735.59;10623697;28;20075;-57
2021/10/29 08:16:24;;;;;;;16.70;11.25;;;;;;;11.80;90.93;100731.72;10623579;28;20051;-58
2021/10/29 08:21:26;;;;;;;17.13;12.13;;;;;;;12.23;89.51;100718.47;10623474;28;20401;-55
2021/10/29 08:26:29;;;;;;;17.42;11.38;;;;;;;12.03;91.09;100721.53;10623650;28;20051;-60
2021/10/29 08:31:31;;;;;;;13.20;10.27;;;;;;;13.12;86.26;100713.41;10605567;28;20050;-61
2021/10/29 08:36:37;;;;;;;15.57;10.05;;;;;;;13.96;83.58;100713.66;10623548;28;20055;-58
2021/10/29 08:41:40;;;;;;;14.35;10.07;;;;;;;14.23;80.57;100710.78;10623522;28;20057;-58
2021/10/29 08:46:44;;;;;;;12.13;9.20;;;;;;;14.13;75.68;100708.00;10623375;28;20051;-58
2021/10/29 08:51:47;;;;;;;12.32;9.10;;;;;;;15.17;74.27;100686.06;10629260;27;20063;-58
2021/10/29 08:56:50;;;;;;;12.32;10.25;;;;;;;14.73;72.69;100690.34;10630458;27;20399;-60
2021/10/29 09:07:40;;;;;;;16.52;9.18;;;;;;;16.93;67.09;100658.50;10630592;27;20096;-57
2021/10/29 09:34:12;;;;;;;8.25;6.60;;;;;;;19.57;61.45;100639.66;10629194;27;20303;-57
2021/10/29 09:39:17;;;;;;;10.32;7.80;;;;;;;18.20;59.40;100632.25;10610763;27;20043;-57
2021/10/29 09:44:19;;;;;;;18.83;8.05;;;;;;;19.11;58.37;100616.63;10629267;27;20051;-57
2021/10/29 09:49:29;;;;;;;13.48;7.55;;;;;;;18.61;56.83;100624.91;10628429;27;20043;-58
2021/10/29 09:54:42;;;;;;;7.90;6.93;;;;;;;18.40;59.58;100611.84;10628975;27;20071;-58
2021/10/29 09:59:45;;;;;;;9.70;6.90;;;;;;;19.96;56.78;100616.31;10627568;27;20399;-58
2021/10/29 10:04:50;;;;;;;8.48;6.18;;;;;;;21.21;56.91;100600.06;10627684;27;20055;-59
2021/10/29 10:09:57;;;;;;;8.77;7.07;;;;;;;20.53;53.03;100586.63;10628596;27;20043;-59
2021/10/29 10:15:00;;;;;;;9.10;6.05;;;;;;;20.55;53.04;100586.47;10627442;27;20055;-59
2021/10/29 10:20:05;;;;;;;7.43;6.32;;;;;;;19.80;53.73;100574.53;10627517;27;20049;-59
2021/10/29 10:25:15;;;;;;;10.65;6.65;;;;;;;20.26;53.04;100574.34;10627181;27;20051;-58
2021/10/29 10:47:03;;;;;;;8.98;5.47;;;;;;;19.97;56.28;100566.66;10626027;27;20051;-59
2021/10/29 10:52:17;;;;;;;9.93;5.93;;;;;;;19.75;53.97;100573.31;10626136;27;20047;-59
2021/10/29 10:57:40;;;;;;;9.20;6.35;;;;;;;19.05;57.57;100563.31;10626088;27;20437;-58
2021/10/29 11:13:16;;;;;;;10.43;6.53;;;;;;;18.15;59.54;100542.59;10608694;27;20047;-58
2021/10/29 11:18:18;;;;;;;8.35;6.38;;;;;;;17.56;60.54;100549.75;10624959;27;20398;-58
2021/10/29 11:23:34;;;;;;;9.35;6.95;;;;;;;17.73;61.85;100537.59;10625021;27;20054;-59
2021/10/29 11:28:46;;;;;;;7.75;6.13;;;;;;;16.71;65.12;100533.44;10624739;27;20376;-58
2021/10/29 11:33:50;;;;;;;8.75;6.57;;;;;;;16.56;66.13;100513.63;10624318;27;20047;-58
2021/10/29 11:38:54;;;;;;;8.00;6.45;;;;;;;16.79;67.13;100513.41;10624428;27;20054;-58
2021/10/29 11:44:12;;;;;;;10.80;7.35;;;;;;;16.47;68.69;100493.28;10624192;27;20066;-60
2021/10/29 11:49:24;;;;;;;8.93;7.25;;;;;;;15.90;69.81;100483.19;10624149;28;20386;-60
2021/10/29 11:54:31;;;;;;;8.75;6.70;;;;;;;16.10;68.96;100472.69;10606729;28;20058;-59
2021/10/29 12:10:12;;;;;;;8.68;6.63;;;;;;;16.20;71.30;100447.16;10624819;28;19926;-58
2021/10/29 12:15:16;;;;;;;12.52;7.93;;;;;;;15.93;71.92;100430.09;10624117;28;20440;-57
2021/10/29 12:20:31;;;;;;;8.73;6.55;;;;;;;16.17;70.50;100426.28;10623331;28;20379;-57
2021/10/29 12:30:51;;;;;;;12.10;7.57;;;;;;;16.32;69.44;100403.00;10632213;27;20059;-58
2021/10/29 13:03:06;;;;;;;6.88;5.80;;;;;;;16.37;69.79;100384.09;10630676;27;20039;-56
2021/10/29 13:08:19;;;;;;;10.65;6.45;;;;;;;16.21;74.31;100371.41;10629922;27;20050;-57
2021/10/29 13:13:28;;;;;;;9.75;6.10;;;;;;;15.90;71.83;100367.00;10629870;27;20505;-57
2021/10/29 13:19:11;;;;;;;8.00;5.75;;;;;;;15.91;71.47;100365.19;10612479;27;20047;-57
2021/10/29 13:24:16;;;;;;;10.43;6.03;;;;;;;15.77;74.80;100359.31;10625862;27;20418;-58
2021/10/29 13:34:52;;;;;;;6.80;6.10;;;;;;;15.60;75.03;100336.97;10628952;27;20050;-58
2021/10/29 13:50:58;;;;;;;9.63;5.57;;;;;;;15.56;77.62;100343.47;10572927;27;20062;-57
2021/10/29 14:33:12;;;;;;;7.78;5.53;;;;;;;15.42;80.72;100344.66;10626754;27;20058;-58
2021/10/29 14:48:39;;;;;;;9.65;5.70;;;;;;;15.07;86.63;100352.06;10625350;27;20064;-57
2021/10/29 15:04:40;;;;;;;9.47;6.17;;;;;;;14.49;94.40;100342.69;10625428;27;20058;-60
2021/10/29 15:15:41;;;;;;;8.80;5.22;;;;;;;14.09;95.69;100348.53;10625012;27;20050;-59
2021/10/29 15:26:25;;;;;;;11.43;6.40;;;;;;;13.73;98.18;100338.16;10624985;27;20055;-60
2021/10/29 15:42:14;;;;;;;9.82;4.55;;;;;;;13.56;97.00;100365.72;10624251;27;20047;-60
2021/10/29 15:47:31;;;;;;;9.65;3.92;;;;;;;13.70;97.63;100356.81;10624343;27;20043;-59
2021/10/29 15:52:34;;;;;;;10.07;3.78;;;;;;;13.96;95.27;100359.19;10624250;28;20055;-58
2021/10/29 15:57:47;;;;;;;6.28;3.90;;;;;;;14.16;95.71;100357.59;10625728;27;20475;-59
2021/10/29 16:02:56;;;;;;;6.53;3.53;;;;;;;14.35;89.80;100356.13;10616276;27;20051;-61
2021/10/29 16:18:40;;;;;;;11.80;3.77;;;;;;;13.99;94.53;100353.69;10617074;27;20055;-60
2021/10/29 16:23:42;;;;;;;4.55;3.50;;;;;;;14.52;89.53;100362.69;10631852;27;20039;-60
2021/10/29 16:28:47;;;;;;;3.85;3.00;;;;;;;14.48;87.86;100373.47;10632283;27;20497;-60
2021/10/29 16:33:50;;;;;;;6.90;4.15;;;;;;;14.22;96.04;100372.06;10631611;27;20058;-59
2021/10/29 16:38:52;;;;;;;10.02;4.75;;;;;;;13.86;100.00;100363.50;10631153;27;20055;-58
2021/10/29 16:43:55;;;;;;;7.55;4.43;;;;;;;13.79;100.00;100364.94;10631532;27;20051;-61
2021/10/29 16:48:57;;;;;;;12.43;4.30;;;;;;;13.97;100.00;100370.53;10631220;27;20051;-60
2021/10/29 16:54:00;;;;;;;5.82;3.95;;;;;;;13.78;100.00;100377.22;10630866;27;20043;-60
2021/10/29 16:59:02;;;;;;;7.70;5.13;;;;;;;13.92;100.00;100434.91;10630640;27;20051;-60
2021/10/29 17:04:05;;;;;;;7.22;4.32;;;;;;;13.76;100.00;100463.34;10630337;27;20505;-59
2021/10/29 17:09:07;;;;;;;8.50;4.45;;;;;;;13.89;100.00;100448.31;10629339;27;20055;-61
2021/10/29 17:14:09;;;;;;;9.07;4.50;;;;;;;13.46;100.00;100456.81;10630021;27;20047;-60
2021/10/29 17:19:12;;;;;;;4.95;3.88;;;;;;;13.55;100.00;100477.19;10629774;27;20054;-60
2021/10/29 17:24:14;;;;;;;10.70;5.68;;;;;;;13.46;100.00;100488.38;10629883;27;20047;-61
2021/10/29 17:29:17;;;;;;;8.68;4.40;;;;;;;13.66;100.00;100486.88;10611384;27;20051;-60
2021/10/29 17:34:20;;;;;;;12.43;6.55;;;;;;;13.51;100.00;100496.75;10629321;27;20051;-62
2021/10/29 17:39:23;;;;;;;9.57;5.15;;;;;;;13.31;100.00;100492.94;10629096;27;20048;-62
2021/10/29 17:44:27;;;;;;;7.70;4.60;;;;;;;13.52;100.00;100482.66;10629002;27;20058;-61
2021/10/29 17:49:30;;;;;;;7.07;3.83;;;;;;;13.28;100.00;100485.31;10628350;27;20050;-60
2021/10/29 17:54:38;;;;;;;4.40;3.97;;;;;;;12.69;100.00;100493.06;10628763;27;20043;-60
2021/10/29 17:59:41;;;;;;;4.82;2.35;;;;;;;12.92;100.00;100505.41;10628695;27;20134;-62
2021/10/29 18:04:43;;;;;;;3.53;2.05;;;;;;;12.83;100.00;100498.19;10629154;27;20051;-60
2021/10/29 18:09:46;;;;;;;2.05;1.73;;;;;;;12.91;100.00;100500.25;10609616;27;20043;-62
2021/10/29 18:14:49;;;;;;;3.65;2.25;;;;;;;12.64;100.00;100507.38;10627633;27;20094;-61
2021/10/29 18:19:51;;;;;;;4.32;2.53;;;;;;;12.79;100.00;100517.75;10627460;27;20047;-61
2021/10/29 18:24:53;;;;;;;2.88;2.08;;;;;;;13.16;100.00;100522.97;10627049;27;20051;-61
2021/10/29 18:29:57;;;;;;;3.65;2.78;;;;;;;12.92;100.00;100534.31;10626853;27;20482;-61
2021/10/29 18:34:59;;;;;;;5.03;1.80;;;;;;;12.73;100.00;100534.78;10626841;27;20057;-61
2021/10/29 18:40:02;;;;;;;5.47;2.67;;;;;;;12.78;100.00;100532.69;10626439;27;20043;-60
2021/10/29 18:45:05;;;;;;;3.72;2.35;;;;;;;12.87;100.00;100528.53;10627162;27;20065;-61
2021/10/29 18:50:07;;;;;;;6.00;2.85;;;;;;;12.52;100.00;100521.38;10608018;27;20046;-61
2021/10/29 18:55:10;;;;;;;6.30;3.35;;;;;;;12.49;100.00;100526.00;10625922;27;20478;-61
2021/10/29 19:00:15;;;;;;;10.43;4.53;;;;;;;12.37;100.00;100536.44;10625544;27;20039;-62
2021/10/29 19:05:18;;;;;;;8.43;4.88;;;;;;;12.44;100.00;100526.34;10625986;27;20058;-62
2021/10/29 19:10:21;;;;;;;4.28;3.25;;;;;;;12.45;100.00;100528.81;10625861;27;20134;-61
2021/10/29 19:15:24;;;;;;;8.23;4.10;;;;;;;12.40;100.00;100533.56;10625826;27;20043;-61
2021/10/29 19:20:26;;;;;;;8.60;4.32;;;;;;;12.25;100.00;100545.97;10625062;27;20050;-60
2021/10/29 19:25:28;;;;;;;7.15;4.90;;;;;;;12.36;100.00;100547.84;10624862;27;20391;-59
2021/10/29 19:30:31;;;;;;;9.13;4.47;;;;;;;12.35;100.00;100554.03;10624603;27;20047;-61
2021/10/29 19:35:33;;;;;;;10.77;6.75;;;;;;;12.21;100.00;100541.03;10624662;27;20047;-60
2021/10/29 19:40:45;;;;;;;16.70;9.18;;;;;;;12.34;100.00;100565.50;10624737;27;20050;-60
2021/10/29 19:45:50;;;;;;;11.57;6.97;;;;;;;12.48;100.00;100566.34;10608029;27;20421;-61
2021/10/29 19:50:53;;;;;;;17.73;8.90;;;;;;;12.32;100.00;100569.16;10624405;28;20044;-60
2021/10/29 19:55:56;;;;;;;14.95;8.15;;;;;;;12.45;100.00;100575.25;10624331;28;20126;-61
2021/10/29 20:01:00;;;;;;;21.20;10.43;;;;;;;12.56;100.00;100574.53;10624173;28;20043;-61
2021/10/29 20:06:02;;;;;;;11.60;8.40;;;;;;;12.68;100.00;100570.22;10624169;28;20082;-61
2021/10/29 20:11:06;;;;;;;10.73;7.75;;;;;;;12.34;100.00;100565.50;10606491;28;20043;-60
2021/10/29 20:16:09;;;;;;;10.35;6.97;;;;;;;12.56;100.00;100569.28;10624344;28;20043;-60
2021/10/29 20:21:11;;;;;;;10.88;6.80;;;;;;;12.50;100.00;100573.16;10624028;28;20402;-60
2021/10/29 20:26:14;;;;;;;7.82;5.38;;;;;;;12.67;100.00;100558.03;10623917;28;20054;-60
2021/10/29 20:31:16;;;;;;;11.50;6.38;;;;;;;12.60;100.00;100568.94;10623430;28;20047;-60
2021/10/29 20:36:19;;;;;;;8.32;6.72;;;;;;;12.44;100.00;100574.44;10623912;28;20078;-61
2021/10/29 20:41:21;;;;;;;6.85;5.35;;;;;;;12.59;100.00;100574.28;10622926;28;20039;-60
2021/10/29 20:46:24;;;;;;;8.25;6.90;;;;;;;12.40;100.00;100578.19;10628228;27;20050;-60
2021/10/29 20:51:27;;;;;;;6.65;4.97;;;;;;;12.44;100.00;100570.97;10630850;27;20126;-63
2021/10/29 20:56:29;;;;;;;8.75;4.95;;;;;;;12.56;100.00;100577.16;10630810;27;20402;-60
2021/10/29 21:01:32;;;;;;;9.68;6.38;;;;;;;12.27;100.00;100575.59;10630616;27;20049;-61
2021/10/29 21:06:35;;;;;;;7.30;5.60;;;;;;;12.33;100.00;100586.63;10630589;27;20051;-61
2021/10/29 21:11:37;;;;;;;8.43;6.72;;;;;;;12.15;100.00;100604.44;10630811;27;20039;-61
2021/10/29 21:16:40;;;;;;;11.95;6.65;;;;;;;12.29;100.00;100595.63;10629937;27;20057;-62
2021/10/29 21:21:43;;;;;;;9.95;5.78;;;;;;;12.23;100.00;100605.59;10629678;27;20039;-61
2021/10/29 21:26:45;;;;;;;6.90;5.68;;;;;;;12.38;100.00;100598.47;10611821;27;20047;-59
2021/10/29 21:31:54;;;;;;;8.13;6.47;;;;;;;12.19;100.00;100600.69;10629802;27;20039;-61
2021/10/29 21:36:57;;;;;;;11.98;6.13;;;;;;;12.28;100.00;100602.66;10629642;27;20047;-61
2021/10/29 21:41:59;;;;;;;8.00;6.80;;;;;;;12.02;100.00;100604.41;10610660;27;20058;-59
2021/10/29 21:47:02;;;;;;;9.85;6.22;;;;;;;12.00;100.00;100595.78;10629111;27;20051;-61
2021/10/29 21:52:05;;;;;;;6.82;5.47;;;;;;;12.18;100.00;100601.59;10628446;27;20044;-59
2021/10/29 21:57:07;;;;;;;8.10;5.97;;;;;;;11.94;100.00;100588.34;10627883;27;20486;-60
2021/10/29 22:02:10;;;;;;;14.13;7.35;;;;;;;11.88;100.00;100597.41;10628372;27;20050;-61
2021/10/29 22:07:13;;;;;;;9.85;5.88;;;;;;;12.04;100.00;100600.75;10627986;27;20555;-60
2021/10/29 22:12:15;;;;;;;8.93;5.03;;;;;;;11.85;100.00;100595.00;10628049;27;20043;-60
2021/10/29 22:17:17;;;;;;;6.82;6.13;;;;;;;11.91;100.00;100594.63;10627652;27;20050;-61
2021/10/29 22:22:20;;;;;;;7.72;5.97;;;;;;;11.80;100.00;100587.44;10627814;27;20050;-59
2021/10/29 22:27:24;;;;;;;7.70;6.90;;;;;;;11.81;100.00;100586.50;10627358;27;20130;-61
2021/10/29 22:32:26;;;;;;;11.82;6.82;;;;;;;11.82;100.00;100585.56;10626905;27;20054;-61
2021/10/29 22:37:28;;;;;;;7.93;6.25;;;;;;;11.68;100.00;100583.84;10626578;27;20507;-60
2021/10/29 22:42:31;;;;;;;8.20;6.22;;;;;;;11.78;100.00;100575.38;10626524;27;20051;-60
2021/10/29 22:47:33;;;;;;;6.30;5.70;;;;;;;11.68;100.00;100570.75;10626471;27;20051;-59
2021/10/29 22:52:36;;;;;;;20.73;10.43;;;;;;;11.59;100.00;100568.72;10626428;27;20049;-60
2021/10/29 22:57:38;;;;;;;8.38;6.10;;;;;;;11.47;100.00;100575.59;10626190;27;20082;-60
2021/10/29 23:02:41;;;;;;;8.02;7.22;;;;;;;11.55;100.00;100566.38;10625451;27;20050;-59
2021/10/29 23:07:44;;;;;;;11.48;7.30;;;;;;;11.52;100.00;100567.44;10624941;27;20047;-61
2021/10/29 23:12:46;;;;;;;9.32;7.45;;;;;;;11.39;100.00;100569.16;10625282;27;20051;-61
2021/10/29 23:17:48;;;;;;;10.80;9.45;;;;;;;11.44;100.00;100554.81;10625438;27;20094;-60
2021/10/29 23:22:51;;;;;;;10.25;8.57;;;;;;;11.37;100.00;100561.41;10624899;27;20051;-60
2021/10/29 23:27:53;;;;;;;10.85;8.55;;;;;;;11.48;100.00;100547.56;10625368;27;20070;-60
2021/10/29 23:32:56;;;;;;;17.90;11.35;;;;;;;11.27;100.00;100547.19;10624689;27;20046;-60
2021/10/29 23:37:58;;;;;;;11.95;9.55;;;;;;;11.30;100.00;100539.97;10625165;27;20058;-59
2021/10/29 23:43:01;;;;;;;14.35;11.00;;;;;;;11.21;100.00;100548.41;10624336;27;20051;-60
2021/10/29 23:48:04;;;;;;;23.25;11.45;;;;;;;11.12;100.00;100546.41;10624281;27;20055;-60
2021/10/29 23:53:06;;;;;;;17.40;12.18;;;;;;;11.09;100.00;100530.88;10624043;28;20403;-60
2021/10/29 23:58:08;;;;;;;13.27;10.63;;;;;;;11.40;100.00;100527.13;10623936;28;20047;-60
